sensor_id;sensor_type;location;lat;lon;timestamp;pressure;altitude;pressure_sealevel;temperature;humidity
58668;BME280;59852;43.086;25.634;2023-04-30T00:01:53;98606.38;;;9.95;68.89
58668;BME280;59852;43.086;25.634;2023-04-30T00:04:18;98609.94;;;9.94;68.77
58668;BME280;59852;43.086;25.634;2023-04-30T00:06:43;98610.94;;;10.04;69.03
58668;BME280;59852;43.086;25.634;2023-04-30T00:09:09;98613.78;;;9.88;70.09
58668;BME280;59852;43.086;25.634;2023-04-30T00:11:34;98604.38;;;9.98;69.69
58668;BME280;59852;43.086;25.634;2023-04-30T00:13:59;98604.69;;;9.94;69.70
58668;BME280;59852;43.086;25.634;2023-04-30T00:16:25;98602.75;;;9.85;69.65
58668;BME280;59852;43.086;25.634;2023-04-30T00:18:50;98602.00;;;9.83;69.63
58668;BME280;59852;43.086;25.634;2023-04-30T00:21:16;98604.59;;;9.83;69.18
58668;BME280;59852;43.086;25.634;2023-04-30T00:23:41;98600.31;;;9.82;69.52
58668;BME280;59852;43.086;25.634;2023-04-30T00:26:07;98593.88;;;9.74;70.12
58668;BME280;59852;43.086;25.634;2023-04-30T00:28:32;98597.03;;;9.67;69.36
58668;BME280;59852;43.086;25.634;2023-04-30T00:30:57;98590.53;;;9.72;69.39
58668;BME280;59852;43.086;25.634;2023-04-30T00:33:23;98586.53;;;9.80;68.96
58668;BME280;59852;43.086;25.634;2023-04-30T00:35:48;98588.94;;;9.83;68.59
58668;BME280;59852;43.086;25.634;2023-04-30T00:38:14;98591.66;;;9.81;68.83
58668;BME280;59852;43.086;25.634;2023-04-30T00:40:39;98594.16;;;9.83;69.00
58668;BME280;59852;43.086;25.634;2023-04-30T00:43:06;98593.41;;;9.93;69.00
58668;BME280;59852;43.086;25.634;2023-04-30T00:45:31;98588.47;;;10.01;68.72
58668;BME280;59852;43.086;25.634;2023-04-30T00:47:57;98586.78;;;10.00;68.94
58668;BME280;59852;43.086;25.634;2023-04-30T00:50:22;98586.06;;;9.98;68.99
58668;BME280;59852;43.086;25.634;2023-04-30T00:52:47;98587.19;;;10.07;68.48
58668;BME280;59852;43.086;25.634;2023-04-30T00:55:13;98577.34;;;10.11;68.45
58668;BME280;59852;43.086;25.634;2023-04-30T00:57:39;98575.31;;;10.03;69.57
58668;BME280;59852;43.086;25.634;2023-04-30T01:00:08;98576.34;;;10.00;69.46
58668;BME280;59852;43.086;25.634;2023-04-30T01:02:35;98580.59;;;9.77;69.12
58668;BME280;59852;43.086;25.634;2023-04-30T01:05:01;98567.00;;;9.72;68.89
58668;BME280;59852;43.086;25.634;2023-04-30T01:07:27;98569.75;;;9.71;68.48
58668;BME280;59852;43.086;25.634;2023-04-30T01:09:53;98579.69;;;9.66;67.80
58668;BME280;59852;43.086;25.634;2023-04-30T01:12:25;98578.75;;;9.67;67.98
58668;BME280;59852;43.086;25.634;2023-04-30T01:15:03;98573.75;;;9.64;68.69
58668;BME280;59852;43.086;25.634;2023-04-30T01:17:40;98572.03;;;9.63;68.57
58668;BME280;59852;43.086;25.634;2023-04-30T01:20:08;98574.56;;;9.64;67.67
58668;BME280;59852;43.086;25.634;2023-04-30T01:23:00;98576.66;;;9.59;68.93
58668;BME280;59852;43.086;25.634;2023-04-30T01:28:08;98569.13;;;9.67;68.54
58668;BME280;59852;43.086;25.634;2023-04-30T01:30:34;98570.31;;;9.38;69.37
58668;BME280;59852;43.086;25.634;2023-04-30T01:32:59;98571.03;;;9.40;68.79
58668;BME280;59852;43.086;25.634;2023-04-30T01:38:07;98562.31;;;9.15;69.58
58668;BME280;59852;43.086;25.634;2023-04-30T01:40:43;98561.13;;;9.32;68.82
58668;BME280;59852;43.086;25.634;2023-04-30T01:48:31;98561.03;;;9.34;69.33
58668;BME280;59852;43.086;25.634;2023-04-30T01:51:27;98565.94;;;9.13;70.22
58668;BME280;59852;43.086;25.634;2023-04-30T01:53:48;98561.16;;;9.19;69.21
58668;BME280;59852;43.086;25.634;2023-04-30T01:56:17;98559.97;;;9.24;69.28
58668;BME280;59852;43.086;25.634;2023-04-30T01:58:43;98565.22;;;9.11;69.70
58668;BME280;59852;43.086;25.634;2023-04-30T02:01:31;98564.72;;;9.06;70.29
58668;BME280;59852;43.086;25.634;2023-04-30T02:03:55;98565.53;;;9.06;70.06
58668;BME280;59852;43.086;25.634;2023-04-30T02:06:21;98562.50;;;9.12;68.97
58668;BME280;59852;43.086;25.634;2023-04-30T02:08:49;98563.66;;;9.21;68.67
58668;BME280;59852;43.086;25.634;2023-04-30T02:11:15;98561.56;;;9.13;68.79
58668;BME280;59852;43.086;25.634;2023-04-30T02:13:40;98560.31;;;9.19;69.01
58668;BME280;59852;43.086;25.634;2023-04-30T02:16:06;98563.56;;;9.10;69.15
58668;BME280;59852;43.086;25.634;2023-04-30T02:18:31;98566.16;;;9.10;69.23
58668;BME280;59852;43.086;25.634;2023-04-30T02:20:56;98570.94;;;9.03;70.08
58668;BME280;59852;43.086;25.634;2023-04-30T02:23:22;98565.00;;;9.01;70.43
58668;BME280;59852;43.086;25.634;2023-04-30T02:25:47;98562.06;;;8.93;70.59
58668;BME280;59852;43.086;25.634;2023-04-30T02:28:12;98571.78;;;8.91;70.90
58668;BME280;59852;43.086;25.634;2023-04-30T02:30:38;98570.22;;;8.88;70.99
58668;BME280;59852;43.086;25.634;2023-04-30T02:33:03;98567.28;;;8.93;71.28
58668;BME280;59852;43.086;25.634;2023-04-30T02:35:29;98566.16;;;8.97;71.36
58668;BME280;59852;43.086;25.634;2023-04-30T02:37:54;98563.84;;;8.80;72.20
58668;BME280;59852;43.086;25.634;2023-04-30T02:40:19;98565.63;;;8.79;72.40
58668;BME280;59852;43.086;25.634;2023-04-30T02:42:45;98570.84;;;8.79;72.64
58668;BME280;59852;43.086;25.634;2023-04-30T02:45:10;98568.34;;;8.78;72.77
58668;BME280;59852;43.086;25.634;2023-04-30T02:47:35;98570.72;;;8.68;73.41
58668;BME280;59852;43.086;25.634;2023-04-30T02:50:01;98569.38;;;8.75;72.83
58668;BME280;59852;43.086;25.634;2023-04-30T02:52:26;98562.47;;;8.74;73.45
58668;BME280;59852;43.086;25.634;2023-04-30T02:54:52;98569.88;;;8.68;73.65
58668;BME280;59852;43.086;25.634;2023-04-30T02:57:17;98569.78;;;8.69;73.53
58668;BME280;59852;43.086;25.634;2023-04-30T02:59:42;98567.22;;;8.55;74.47
58668;BME280;59852;43.086;25.634;2023-04-30T03:02:10;98565.88;;;8.49;74.19
58668;BME280;59852;43.086;25.634;2023-04-30T03:04:35;98570.38;;;8.47;74.84
58668;BME280;59852;43.086;25.634;2023-04-30T03:07:01;98566.41;;;8.54;74.47
58668;BME280;59852;43.086;25.634;2023-04-30T03:09:28;98575.59;;;8.60;74.18
58668;BME280;59852;43.086;25.634;2023-04-30T03:11:53;98574.88;;;8.58;74.36
58668;BME280;59852;43.086;25.634;2023-04-30T03:14:19;98575.94;;;8.68;74.26
58668;BME280;59852;43.086;25.634;2023-04-30T03:16:44;98577.06;;;8.64;74.51
58668;BME280;59852;43.086;25.634;2023-04-30T03:19:09;98575.47;;;8.49;74.71
58668;BME280;59852;43.086;25.634;2023-04-30T03:21:35;98579.00;;;8.48;74.66
58668;BME280;59852;43.086;25.634;2023-04-30T03:24:01;98571.75;;;8.66;74.45
58668;BME280;59852;43.086;25.634;2023-04-30T03:26:26;98578.59;;;8.54;74.58
58668;BME280;59852;43.086;25.634;2023-04-30T03:28:52;98577.16;;;8.62;74.67
58668;BME280;59852;43.086;25.634;2023-04-30T03:31:19;98579.88;;;8.74;74.26
58668;BME280;59852;43.086;25.634;2023-04-30T03:33:44;98579.75;;;8.62;74.21
58668;BME280;59852;43.086;25.634;2023-04-30T03:36:09;98581.97;;;8.69;74.22
58668;BME280;59852;43.086;25.634;2023-04-30T03:38:35;98585.31;;;8.71;74.05
58668;BME280;59852;43.086;25.634;2023-04-30T03:41:01;98588.19;;;8.53;74.72
58668;BME280;59852;43.086;25.634;2023-04-30T03:43:26;98587.53;;;8.37;75.77
58668;BME280;59852;43.086;25.634;2023-04-30T03:45:51;98598.31;;;8.31;76.24
58668;BME280;59852;43.086;25.634;2023-04-30T03:48:17;98597.81;;;8.12;77.10
58668;BME280;59852;43.086;25.634;2023-04-30T03:50:42;98600.88;;;8.45;75.63
58668;BME280;59852;43.086;25.634;2023-04-30T03:53:08;98603.47;;;8.45;75.79
58668;BME280;59852;43.086;25.634;2023-04-30T03:55:33;98604.91;;;8.63;75.66
58668;BME280;59852;43.086;25.634;2023-04-30T03:57:59;98605.97;;;8.74;74.76
58668;BME280;59852;43.086;25.634;2023-04-30T04:00:24;98611.78;;;8.65;74.38
58668;BME280;59852;43.086;25.634;2023-04-30T04:02:50;98621.59;;;8.74;75.33
58668;BME280;59852;43.086;25.634;2023-04-30T04:05:15;98616.72;;;8.69;75.62
58668;BME280;59852;43.086;25.634;2023-04-30T04:07:40;98618.75;;;8.51;76.93
58668;BME280;59852;43.086;25.634;2023-04-30T04:10:06;98628.25;;;8.65;76.13
58668;BME280;59852;43.086;25.634;2023-04-30T04:12:32;98625.31;;;8.97;74.75
58668;BME280;59852;43.086;25.634;2023-04-30T04:14:57;98615.94;;;9.07;73.77
58668;BME280;59852;43.086;25.634;2023-04-30T04:17:22;98618.22;;;9.11;73.36
58668;BME280;59852;43.086;25.634;2023-04-30T04:19:48;98618.34;;;8.57;75.49
58668;BME280;59852;43.086;25.634;2023-04-30T04:22:13;98616.25;;;8.62;76.02
58668;BME280;59852;43.086;25.634;2023-04-30T04:24:38;98627.34;;;8.66;75.82
58668;BME280;59852;43.086;25.634;2023-04-30T04:27:04;98624.91;;;8.63;76.22
58668;BME280;59852;43.086;25.634;2023-04-30T04:29:29;98629.78;;;8.82;76.22
58668;BME280;59852;43.086;25.634;2023-04-30T04:31:55;98630.22;;;9.01;73.70
58668;BME280;59852;43.086;25.634;2023-04-30T04:34:20;98634.81;;;8.98;73.58
58668;BME280;59852;43.086;25.634;2023-04-30T04:36:45;98635.75;;;8.97;73.93
58668;BME280;59852;43.086;25.634;2023-04-30T04:39:11;98640.44;;;8.91;73.81
58668;BME280;59852;43.086;25.634;2023-04-30T04:41:38;98632.09;;;8.99;73.81
58668;BME280;59852;43.086;25.634;2023-04-30T04:44:03;98640.47;;;8.65;74.59
58668;BME280;59852;43.086;25.634;2023-04-30T04:46:29;98645.72;;;8.77;74.28
58668;BME280;59852;43.086;25.634;2023-04-30T04:48:55;98638.53;;;8.81;74.25
58668;BME280;59852;43.086;25.634;2023-04-30T04:51:21;98636.72;;;8.69;75.54
58668;BME280;59852;43.086;25.634;2023-04-30T04:53:46;98641.25;;;8.79;75.01
58668;BME280;59852;43.086;25.634;2023-04-30T04:56:12;98635.88;;;9.08;74.38
58668;BME280;59852;43.086;25.634;2023-04-30T04:58:38;98630.34;;;9.12;74.27
58668;BME280;59852;43.086;25.634;2023-04-30T05:01:03;98628.78;;;9.48;72.91
58668;BME280;59852;43.086;25.634;2023-04-30T05:03:30;98625.03;;;9.52;72.22
58668;BME280;59852;43.086;25.634;2023-04-30T05:05:56;98622.81;;;9.59;72.17
58668;BME280;59852;43.086;25.634;2023-04-30T05:08:21;98633.66;;;9.78;71.23
58668;BME280;59852;43.086;25.634;2023-04-30T05:10:47;98631.91;;;9.66;71.54
58668;BME280;59852;43.086;25.634;2023-04-30T05:13:12;98639.22;;;9.73;71.51
58668;BME280;59852;43.086;25.634;2023-04-30T05:15:37;98639.94;;;9.75;71.64
58668;BME280;59852;43.086;25.634;2023-04-30T05:18:03;98634.09;;;9.85;71.43
58668;BME280;59852;43.086;25.634;2023-04-30T05:20:28;98635.88;;;9.71;71.54
58668;BME280;59852;43.086;25.634;2023-04-30T05:22:54;98643.09;;;9.68;71.59
58668;BME280;59852;43.086;25.634;2023-04-30T05:25:19;98647.75;;;9.88;71.96
58668;BME280;59852;43.086;25.634;2023-04-30T05:27:44;98644.81;;;10.05;71.14
58668;BME280;59852;43.086;25.634;2023-04-30T05:30:10;98641.44;;;10.16;70.52
58668;BME280;59852;43.086;25.634;2023-04-30T05:32:35;98642.75;;;10.34;68.56
58668;BME280;59852;43.086;25.634;2023-04-30T05:35:01;98644.25;;;10.50;68.18
58668;BME280;59852;43.086;25.634;2023-04-30T05:37:26;98645.25;;;10.36;68.68
58668;BME280;59852;43.086;25.634;2023-04-30T05:39:52;98641.19;;;10.56;66.62
58668;BME280;59852;43.086;25.634;2023-04-30T05:42:20;98645.84;;;10.87;66.28
58668;BME280;59852;43.086;25.634;2023-04-30T05:44:45;98645.59;;;11.14;65.65
58668;BME280;59852;43.086;25.634;2023-04-30T05:47:10;98638.41;;;11.05;65.82
58668;BME280;59852;43.086;25.634;2023-04-30T05:49:36;98640.69;;;11.10;65.16
58668;BME280;59852;43.086;25.634;2023-04-30T05:52:01;98642.72;;;11.17;63.75
58668;BME280;59852;43.086;25.634;2023-04-30T05:54:28;98641.38;;;10.66;64.37
58668;BME280;59852;43.086;25.634;2023-04-30T05:56:53;98645.00;;;11.22;64.45
58668;BME280;59852;43.086;25.634;2023-04-30T05:59:18;98639.34;;;10.69;63.78
58668;BME280;59852;43.086;25.634;2023-04-30T06:01:44;98638.88;;;10.64;63.63
58668;BME280;59852;43.086;25.634;2023-04-30T06:04:09;98641.28;;;11.02;63.43
58668;BME280;59852;43.086;25.634;2023-04-30T06:06:35;98646.56;;;11.25;63.43
58668;BME280;59852;43.086;25.634;2023-04-30T06:09:01;98641.13;;;10.93;62.52
58668;BME280;59852;43.086;25.634;2023-04-30T06:11:26;98641.72;;;11.42;62.03
58668;BME280;59852;43.086;25.634;2023-04-30T06:13:51;98643.38;;;11.32;60.97
58668;BME280;59852;43.086;25.634;2023-04-30T06:16:17;98646.38;;;11.61;61.11
58668;BME280;59852;43.086;25.634;2023-04-30T06:18:42;98642.25;;;11.81;61.41
58668;BME280;59852;43.086;25.634;2023-04-30T06:21:08;98638.16;;;11.88;61.37
58668;BME280;59852;43.086;25.634;2023-04-30T06:23:33;98640.56;;;11.91;61.46
58668;BME280;59852;43.086;25.634;2023-04-30T06:25:59;98639.63;;;11.81;60.69
58668;BME280;59852;43.086;25.634;2023-04-30T06:28:25;98641.47;;;12.24;59.55
58668;BME280;59852;43.086;25.634;2023-04-30T06:30:50;98643.22;;;12.46;59.95
58668;BME280;59852;43.086;25.634;2023-04-30T06:33:16;98642.38;;;12.45;60.35
58668;BME280;59852;43.086;25.634;2023-04-30T06:35:41;98643.09;;;12.47;60.98
58668;BME280;59852;43.086;25.634;2023-04-30T06:38:07;98641.72;;;12.64;60.09
58668;BME280;59852;43.086;25.634;2023-04-30T06:40:32;98640.75;;;12.65;60.17
58668;BME280;59852;43.086;25.634;2023-04-30T06:42:58;98641.06;;;12.83;60.65
58668;BME280;59852;43.086;25.634;2023-04-30T06:45:23;98642.16;;;13.01;59.03
58668;BME280;59852;43.086;25.634;2023-04-30T06:47:48;98632.38;;;13.03;59.18
58668;BME280;59852;43.086;25.634;2023-04-30T06:50:14;98635.63;;;13.16;58.70
58668;BME280;59852;43.086;25.634;2023-04-30T06:52:39;98634.75;;;13.27;58.31
58668;BME280;59852;43.086;25.634;2023-04-30T06:55:05;98645.09;;;13.40;57.71
58668;BME280;59852;43.086;25.634;2023-04-30T06:57:30;98644.38;;;13.59;57.19
58668;BME280;59852;43.086;25.634;2023-04-30T06:59:56;98637.09;;;13.72;56.96
58668;BME280;59852;43.086;25.634;2023-04-30T07:02:21;98634.06;;;13.76;56.59
58668;BME280;59852;43.086;25.634;2023-04-30T07:04:47;98642.72;;;13.98;56.75
58668;BME280;59852;43.086;25.634;2023-04-30T07:07:13;98636.09;;;14.03;55.94
58668;BME280;59852;43.086;25.634;2023-04-30T07:09:38;98639.47;;;14.25;55.02
58668;BME280;59852;43.086;25.634;2023-04-30T07:12:04;98646.59;;;14.03;52.82
58668;BME280;59852;43.086;25.634;2023-04-30T07:14:30;98643.47;;;14.19;52.61
58668;BME280;59852;43.086;25.634;2023-04-30T07:16:57;98639.94;;;14.40;52.25
58668;BME280;59852;43.086;25.634;2023-04-30T07:19:23;98642.91;;;14.56;53.42
58668;BME280;59852;43.086;25.634;2023-04-30T07:21:50;98646.38;;;14.66;52.61
58668;BME280;59852;43.086;25.634;2023-04-30T07:24:16;98642.19;;;14.73;51.97
58668;BME280;59852;43.086;25.634;2023-04-30T07:26:41;98643.19;;;14.91;50.90
58668;BME280;59852;43.086;25.634;2023-04-30T07:29:07;98647.22;;;15.05;51.12
58668;BME280;59852;43.086;25.634;2023-04-30T07:31:32;98633.91;;;15.07;52.08
58668;BME280;59852;43.086;25.634;2023-04-30T07:33:58;98630.09;;;15.38;51.95
58668;BME280;59852;43.086;25.634;2023-04-30T07:36:23;98634.22;;;15.50;52.07
58668;BME280;59852;43.086;25.634;2023-04-30T07:38:51;98635.38;;;15.38;50.61
58668;BME280;59852;43.086;25.634;2023-04-30T07:41:16;98635.19;;;15.49;51.91
58668;BME280;59852;43.086;25.634;2023-04-30T07:43:41;98631.31;;;15.63;51.61
58668;BME280;59852;43.086;25.634;2023-04-30T07:46:07;98631.38;;;15.81;50.57
58668;BME280;59852;43.086;25.634;2023-04-30T07:48:32;98630.78;;;15.87;49.59
58668;BME280;59852;43.086;25.634;2023-04-30T07:50:57;98630.50;;;15.90;50.72
58668;BME280;59852;43.086;25.634;2023-04-30T07:53:23;98625.03;;;15.74;49.63
58668;BME280;59852;43.086;25.634;2023-04-30T07:55:48;98626.25;;;15.80;49.75
58668;BME280;59852;43.086;25.634;2023-04-30T07:58:14;98632.41;;;15.98;49.36
58668;BME280;59852;43.086;25.634;2023-04-30T08:00:39;98638.00;;;16.22;50.05
58668;BME280;59852;43.086;25.634;2023-04-30T08:03:04;98639.19;;;16.28;49.44
58668;BME280;59852;43.086;25.634;2023-04-30T08:05:30;98638.19;;;16.56;49.25
58668;BME280;59852;43.086;25.634;2023-04-30T08:07:55;98633.25;;;16.61;47.65
58668;BME280;59852;43.086;25.634;2023-04-30T08:10:21;98641.06;;;16.63;47.27
58668;BME280;59852;43.086;25.634;2023-04-30T08:12:46;98634.44;;;16.77;46.88
58668;BME280;59852;43.086;25.634;2023-04-30T08:15:12;98636.06;;;16.60;48.21
58668;BME280;59852;43.086;25.634;2023-04-30T08:17:37;98631.72;;;16.86;46.58
58668;BME280;59852;43.086;25.634;2023-04-30T08:20:03;98624.09;;;17.01;45.65
58668;BME280;59852;43.086;25.634;2023-04-30T08:22:28;98628.09;;;17.05;44.97
58668;BME280;59852;43.086;25.634;2023-04-30T08:24:54;98617.44;;;17.15;46.07
58668;BME280;59852;43.086;25.634;2023-04-30T08:27:20;98628.72;;;17.25;46.25
58668;BME280;59852;43.086;25.634;2023-04-30T08:29:45;98622.72;;;16.97;46.23
58668;BME280;59852;43.086;25.634;2023-04-30T08:32:11;98625.53;;;17.13;45.22
58668;BME280;59852;43.086;25.634;2023-04-30T08:34:36;98629.31;;;16.93;44.29
58668;BME280;59852;43.086;25.634;2023-04-30T08:37:01;98623.69;;;17.14;44.58
58668;BME280;59852;43.086;25.634;2023-04-30T08:39:27;98628.91;;;17.06;45.86
58668;BME280;59852;43.086;25.634;2023-04-30T08:41:55;98629.16;;;16.95;45.02
58668;BME280;59852;43.086;25.634;2023-04-30T08:44:22;98626.81;;;17.35;44.12
58668;BME280;59852;43.086;25.634;2023-04-30T08:46:51;98622.47;;;17.78;43.69
58668;BME280;59852;43.086;25.634;2023-04-30T08:49:17;98625.47;;;17.57;44.18
58668;BME280;59852;43.086;25.634;2023-04-30T08:51:43;98627.19;;;17.66;43.52
58668;BME280;59852;43.086;25.634;2023-04-30T08:54:09;98620.13;;;18.09;42.16
58668;BME280;59852;43.086;25.634;2023-04-30T08:56:36;98622.88;;;17.65;42.48
58668;BME280;59852;43.086;25.634;2023-04-30T08:59:02;98623.19;;;17.88;42.99
58668;BME280;59852;43.086;25.634;2023-04-30T09:01:27;98620.03;;;17.85;42.75
58668;BME280;59852;43.086;25.634;2023-04-30T09:03:53;98617.66;;;17.73;43.54
58668;BME280;59852;43.086;25.634;2023-04-30T09:06:19;98615.75;;;17.66;42.28
58668;BME280;59852;43.086;25.634;2023-04-30T09:08:45;98618.09;;;17.95;42.49
58668;BME280;59852;43.086;25.634;2023-04-30T09:11:24;98602.41;;;18.01;43.22
58668;BME280;59852;43.086;25.634;2023-04-30T09:13:50;98594.94;;;17.97;43.92
58668;BME280;59852;43.086;25.634;2023-04-30T09:16:19;98608.81;;;17.91;42.56
58668;BME280;59852;43.086;25.634;2023-04-30T09:18:45;98601.31;;;17.52;43.23
58668;BME280;59852;43.086;25.634;2023-04-30T09:21:11;98602.16;;;18.21;43.94
58668;BME280;59852;43.086;25.634;2023-04-30T09:23:36;98595.53;;;18.25;43.14
58668;BME280;59852;43.086;25.634;2023-04-30T09:26:21;98588.78;;;18.39;42.08
58668;BME280;59852;43.086;25.634;2023-04-30T09:28:56;98587.78;;;18.48;42.61
58668;BME280;59852;43.086;25.634;2023-04-30T09:31:22;98591.97;;;17.92;43.31
58668;BME280;59852;43.086;25.634;2023-04-30T09:33:48;98591.63;;;17.69;46.92
58668;BME280;59852;43.086;25.634;2023-04-30T09:36:13;98589.88;;;18.12;44.80
58668;BME280;59852;43.086;25.634;2023-04-30T09:38:39;98586.28;;;18.29;42.12
58668;BME280;59852;43.086;25.634;2023-04-30T09:41:04;98578.91;;;18.73;42.70
58668;BME280;59852;43.086;25.634;2023-04-30T09:43:30;98582.56;;;18.97;41.92
58668;BME280;59852;43.086;25.634;2023-04-30T09:45:56;98582.56;;;19.05;42.00
58668;BME280;59852;43.086;25.634;2023-04-30T09:48:22;98583.53;;;19.20;41.80
58668;BME280;59852;43.086;25.634;2023-04-30T09:50:48;98578.28;;;18.79;43.83
58668;BME280;59852;43.086;25.634;2023-04-30T09:53:14;98580.69;;;18.40;42.96
58668;BME280;59852;43.086;25.634;2023-04-30T09:55:45;98577.78;;;18.09;42.91
58668;BME280;59852;43.086;25.634;2023-04-30T09:58:11;98580.06;;;17.36;44.60
58668;BME280;59852;43.086;25.634;2023-04-30T10:00:37;98578.72;;;17.92;44.06
58668;BME280;59852;43.086;25.634;2023-04-30T10:03:10;98573.25;;;18.52;42.30
58668;BME280;59852;43.086;25.634;2023-04-30T10:05:38;98575.59;;;18.96;41.93
58668;BME280;59852;43.086;25.634;2023-04-30T10:08:06;98572.13;;;18.95;42.03
58668;BME280;59852;43.086;25.634;2023-04-30T10:10:32;98572.13;;;18.87;41.94
58668;BME280;59852;43.086;25.634;2023-04-30T10:13:02;98570.44;;;18.61;40.84
58668;BME280;59852;43.086;25.634;2023-04-30T10:15:38;98567.47;;;19.13;41.29
58668;BME280;59852;43.086;25.634;2023-04-30T10:18:04;98557.31;;;19.41;40.91
58668;BME280;59852;43.086;25.634;2023-04-30T10:20:33;98555.88;;;19.14;41.02
58668;BME280;59852;43.086;25.634;2023-04-30T10:22:59;98556.13;;;19.60;39.74
58668;BME280;59852;43.086;25.634;2023-04-30T10:25:25;98562.31;;;19.28;39.94
58668;BME280;59852;43.086;25.634;2023-04-30T10:27:52;98563.25;;;19.99;40.34
58668;BME280;59852;43.086;25.634;2023-04-30T10:30:17;98555.66;;;19.32;40.61
58668;BME280;59852;43.086;25.634;2023-04-30T10:32:46;98560.06;;;20.03;40.04
58668;BME280;59852;43.086;25.634;2023-04-30T10:35:21;98564.22;;;20.06;38.95
58668;BME280;59852;43.086;25.634;2023-04-30T10:38:09;98560.56;;;19.68;40.72
58668;BME280;59852;43.086;25.634;2023-04-30T10:40:37;98549.91;;;19.76;40.13
58668;BME280;59852;43.086;25.634;2023-04-30T10:43:02;98552.56;;;19.12;41.57
58668;BME280;59852;43.086;25.634;2023-04-30T10:45:34;98546.03;;;19.47;40.16
58668;BME280;59852;43.086;25.634;2023-04-30T10:48:01;98549.59;;;18.91;40.64
58668;BME280;59852;43.086;25.634;2023-04-30T10:50:28;98550.72;;;19.21;41.53
58668;BME280;59852;43.086;25.634;2023-04-30T10:53:03;98541.94;;;19.20;42.58
58668;BME280;59852;43.086;25.634;2023-04-30T10:55:29;98537.34;;;18.98;43.95
58668;BME280;59852;43.086;25.634;2023-04-30T10:57:56;98539.28;;;19.29;42.90
58668;BME280;59852;43.086;25.634;2023-04-30T11:00:25;98535.34;;;20.03;41.51
58668;BME280;59852;43.086;25.634;2023-04-30T11:02:55;98539.19;;;20.00;42.79
58668;BME280;59852;43.086;25.634;2023-04-30T11:05:21;98536.84;;;19.66;43.00
58668;BME280;59852;43.086;25.634;2023-04-30T11:07:58;98533.25;;;19.59;42.84
58668;BME280;59852;43.086;25.634;2023-04-30T11:10:25;98537.97;;;20.34;39.93
58668;BME280;59852;43.086;25.634;2023-04-30T11:12:53;98532.41;;;19.51;40.77
58668;BME280;59852;43.086;25.634;2023-04-30T11:15:19;98528.97;;;19.34;41.24
58668;BME280;59852;43.086;25.634;2023-04-30T11:17:45;98539.38;;;20.53;40.27
58668;BME280;59852;43.086;25.634;2023-04-30T11:20:12;98533.44;;;19.33;40.03
58668;BME280;59852;43.086;25.634;2023-04-30T11:22:38;98533.75;;;19.94;41.55
58668;BME280;59852;43.086;25.634;2023-04-30T11:25:04;98534.06;;;20.53;40.42
58668;BME280;59852;43.086;25.634;2023-04-30T11:27:31;98533.63;;;20.41;40.58
58668;BME280;59852;43.086;25.634;2023-04-30T11:29:57;98529.06;;;19.65;41.96
58668;BME280;59852;43.086;25.634;2023-04-30T11:32:23;98531.47;;;19.83;40.56
58668;BME280;59852;43.086;25.634;2023-04-30T11:34:50;98534.66;;;20.09;40.28
58668;BME280;59852;43.086;25.634;2023-04-30T11:37:19;98522.63;;;19.98;41.37
58668;BME280;59852;43.086;25.634;2023-04-30T11:39:45;98516.41;;;20.37;39.63
58668;BME280;59852;43.086;25.634;2023-04-30T11:42:14;98522.50;;;20.69;40.84
58668;BME280;59852;43.086;25.634;2023-04-30T11:44:40;98520.88;;;20.37;38.29
58668;BME280;59852;43.086;25.634;2023-04-30T11:47:05;98519.59;;;20.01;38.60
58668;BME280;59852;43.086;25.634;2023-04-30T11:49:30;98513.31;;;19.63;39.80
58668;BME280;59852;43.086;25.634;2023-04-30T11:51:56;98516.66;;;19.49;40.20
58668;BME280;59852;43.086;25.634;2023-04-30T11:54:21;98518.63;;;19.00;40.84
58668;BME280;59852;43.086;25.634;2023-04-30T11:56:47;98515.91;;;19.24;40.61
58668;BME280;59852;43.086;25.634;2023-04-30T11:59:12;98516.81;;;19.95;39.14
58668;BME280;59852;43.086;25.634;2023-04-30T12:01:38;98508.47;;;20.06;37.28
58668;BME280;59852;43.086;25.634;2023-04-30T12:04:04;98510.28;;;20.59;36.93
58668;BME280;59852;43.086;25.634;2023-04-30T12:06:30;98510.91;;;20.39;36.91
58668;BME280;59852;43.086;25.634;2023-04-30T12:08:56;98501.66;;;20.57;35.35
58668;BME280;59852;43.086;25.634;2023-04-30T12:11:23;98501.41;;;20.44;34.35
58668;BME280;59852;43.086;25.634;2023-04-30T12:13:53;98501.06;;;20.47;34.06
58668;BME280;59852;43.086;25.634;2023-04-30T12:16:18;98496.38;;;20.26;35.62
58668;BME280;59852;43.086;25.634;2023-04-30T12:18:44;98500.72;;;20.50;37.45
58668;BME280;59852;43.086;25.634;2023-04-30T12:21:09;98487.63;;;20.41;36.13
58668;BME280;59852;43.086;25.634;2023-04-30T12:23:35;98494.59;;;20.19;37.62
58668;BME280;59852;43.086;25.634;2023-04-30T12:26:00;98483.31;;;20.48;37.87
58668;BME280;59852;43.086;25.634;2023-04-30T12:28:26;98484.41;;;20.53;35.75
58668;BME280;59852;43.086;25.634;2023-04-30T12:30:52;98491.22;;;20.56;36.82
58668;BME280;59852;43.086;25.634;2023-04-30T12:33:17;98482.69;;;20.60;37.28
58668;BME280;59852;43.086;25.634;2023-04-30T12:35:43;98482.16;;;20.65;37.29
58668;BME280;59852;43.086;25.634;2023-04-30T12:38:08;98473.69;;;20.84;37.22
58668;BME280;59852;43.086;25.634;2023-04-30T12:40:34;98484.66;;;20.81;36.83
58668;BME280;59852;43.086;25.634;2023-04-30T12:43:06;98483.75;;;20.51;36.75
58668;BME280;59852;43.086;25.634;2023-04-30T12:45:45;98479.34;;;20.44;36.09
58668;BME280;59852;43.086;25.634;2023-04-30T12:48:11;98476.16;;;20.48;37.31
58668;BME280;59852;43.086;25.634;2023-04-30T12:50:37;98474.28;;;20.72;38.01
58668;BME280;59852;43.086;25.634;2023-04-30T12:53:06;98470.09;;;20.54;36.17
58668;BME280;59852;43.086;25.634;2023-04-30T12:55:32;98472.63;;;20.71;36.22
58668;BME280;59852;43.086;25.634;2023-04-30T13:00:28;98456.63;;;19.56;37.16
58668;BME280;59852;43.086;25.634;2023-04-30T13:02:54;98466.78;;;20.75;36.21
58668;BME280;59852;43.086;25.634;2023-04-30T13:05:19;98454.47;;;20.74;36.37